createdAt,value
2023-03-25T00:02:27.492Z,98209.81
2023-03-25T00:04:54.769Z,98216.38
2023-03-25T00:07:23.659Z,98224.41
2023-03-25T00:09:50.251Z,98217.97
2023-03-25T00:12:19.427Z,98222.41
2023-03-25T00:14:55.107Z,98207.91
2023-03-25T00:17:22.496Z,98204.41
2023-03-25T00:19:53.107Z,98208.22
2023-03-25T00:22:19.514Z,98215.88
2023-03-25T00:24:47.238Z,98216.50
2023-03-25T00:27:17.465Z,98211.63
2023-03-25T00:29:45.165Z,98214.75
2023-03-25T00:32:12.768Z,98207.91
2023-03-25T00:34:47.138Z,98212.00
2023-03-25T00:37:17.629Z,98210.03
2023-03-25T00:39:47.643Z,98214.22
2023-03-25T00:42:17.958Z,98213.31
2023-03-25T00:44:44.513Z,98225.78
2023-03-25T00:47:17.299Z,98229.56
2023-03-25T00:49:43.843Z,98227.91
2023-03-25T00:52:10.716Z,98224.41
2023-03-25T00:54:38.028Z,98221.63
2023-03-25T00:57:04.506Z,98219.72
2023-03-25T00:59:31.707Z,98206.38
2023-03-25T01:01:59.192Z,98222.25
2023-03-25T01:04:25.677Z,98223.81
2023-03-25T01:06:53.958Z,98211.16
2023-03-25T01:09:20.744Z,98208.94
2023-03-25T01:11:48.781Z,98206.13
2023-03-25T01:14:19.289Z,98190.75
2023-03-25T01:16:46.539Z,98186.09
2023-03-25T01:19:14.563Z,98182.13
2023-03-25T01:21:41.750Z,98178.59
2023-03-25T01:24:12.156Z,98164.72
2023-03-25T01:26:41.166Z,98167.59
2023-03-25T01:29:07.905Z,98178.13
2023-03-25T01:31:34.458Z,98186.16
2023-03-25T01:34:01.335Z,98181.50
2023-03-25T01:36:30.942Z,98178.97
2023-03-25T01:38:59.891Z,98177.78
2023-03-25T01:41:35.726Z,98176.78
2023-03-25T01:44:14.824Z,98174.00
2023-03-25T01:46:45.414Z,98172.47
2023-03-25T01:49:21.787Z,98170.63
2023-03-25T01:51:53.262Z,98173.31
2023-03-25T01:54:21.345Z,98182.00
2023-03-25T01:56:49.593Z,98173.16
2023-03-25T01:59:20.291Z,98171.00
2023-03-25T02:01:47.037Z,98161.63
2023-03-25T02:04:17.160Z,98165.16
2023-03-25T02:06:53.994Z,98151.09
2023-03-25T02:09:24.066Z,98159.50
2023-03-25T02:11:54.989Z,98158.09
2023-03-25T02:14:27.255Z,98156.13
2023-03-25T02:17:23.704Z,98156.44
2023-03-25T02:20:08.882Z,98152.09
2023-03-25T02:22:55.435Z,98163.78
2023-03-25T02:25:46.749Z,98165.16
2023-03-25T02:28:26.030Z,98163.78
2023-03-25T02:31:11.777Z,98163.44
2023-03-25T02:33:50.216Z,98166.09
2023-03-25T02:36:56.718Z,98162.41
2023-03-25T02:39:39.443Z,98163.69
2023-03-25T02:42:33.380Z,98172.16
2023-03-25T02:45:04.669Z,98154.31
2023-03-25T02:47:39.464Z,98165.59
2023-03-25T02:50:22.275Z,98155.22
2023-03-25T02:52:57.485Z,98155.75
2023-03-25T02:55:27.292Z,98152.78
2023-03-25T02:57:57.074Z,98165.59
2023-03-25T03:00:29.084Z,98156.91
2023-03-25T03:03:11.381Z,98157.06
2023-03-25T03:05:43.740Z,98171.94
2023-03-25T03:08:40.718Z,98178.22
2023-03-25T03:11:29.226Z,98184.09
2023-03-25T03:14:04.723Z,98187.97
2023-03-25T03:16:58.258Z,98185.47
2023-03-25T03:19:56.235Z,98188.59
2023-03-25T03:22:46.068Z,98181.34
2023-03-25T03:25:18.854Z,98174.22
2023-03-25T03:28:06.494Z,98178.59
2023-03-25T03:31:01.029Z,98171.75
2023-03-25T03:33:37.024Z,98171.41
2023-03-25T03:36:16.088Z,98170.28
2023-03-25T03:38:50.261Z,98165.59
2023-03-25T03:41:20.783Z,98160.28
2023-03-25T03:43:55.965Z,98171.75
2023-03-25T03:46:29.583Z,98162.94
2023-03-25T03:48:59.891Z,98176.97
2023-03-25T03:51:31.769Z,98166.13
2023-03-25T03:54:02.821Z,98171.31
2023-03-25T03:56:37.129Z,98182.31
2023-03-25T03:59:11.848Z,98176.81
2023-03-25T04:01:46.190Z,98180.81
2023-03-25T04:04:23.845Z,98180.97
2023-03-25T04:07:14.650Z,98178.97
2023-03-25T04:10:03.062Z,98194.16
2023-03-25T04:12:38.721Z,98198.84
2023-03-25T04:15:07.280Z,98201.28
2023-03-25T04:17:33.671Z,98200.13
2023-03-25T04:20:01.544Z,98189.97
2023-03-25T04:22:28.012Z,98192.47
2023-03-25T04:24:56.082Z,98192.25
2023-03-25T04:27:29.545Z,98189.59
2023-03-25T04:29:57.627Z,98196.25
2023-03-25T04:32:27.687Z,98192.09
2023-03-25T04:34:58.589Z,98188.59
2023-03-25T04:37:28.383Z,98186.91
2023-03-25T04:40:00.001Z,98193.56
2023-03-25T04:42:33.290Z,98186.09
2023-03-25T04:44:59.971Z,98188.59
2023-03-25T04:47:28.038Z,98185.25
2023-03-25T04:49:54.810Z,98180.91
2023-03-25T04:52:21.190Z,98191.28
2023-03-25T04:54:48.044Z,98183.25
2023-03-25T04:57:15.229Z,98185.94
2023-03-25T04:59:41.991Z,98183.72
2023-03-25T05:02:13.200Z,98168.88
2023-03-25T05:04:47.236Z,98179.38
2023-03-25T05:07:14.225Z,98181.88
2023-03-25T05:09:40.789Z,98180.22
2023-03-25T05:12:11.116Z,98172.19
2023-03-25T05:14:37.524Z,98186.16
2023-03-25T05:17:04.071Z,98179.31
2023-03-25T05:19:31.449Z,98191.28
2023-03-25T05:21:58.023Z,98189.50
2023-03-25T05:24:26.212Z,98179.00
2023-03-25T05:26:52.588Z,98178.63
2023-03-25T05:29:19.163Z,98185.09
2023-03-25T05:31:46.338Z,98181.47
2023-03-25T05:34:14.680Z,98181.13
2023-03-25T05:36:42.166Z,98198.00
2023-03-25T05:39:08.793Z,98187.63
2023-03-25T05:41:39.046Z,98194.66
2023-03-25T05:44:07.393Z,98189.31
2023-03-25T05:46:34.524Z,98192.59
2023-03-25T05:49:02.105Z,98196.47
2023-03-25T05:51:33.529Z,98195.13
2023-03-25T05:54:01.443Z,98202.13
2023-03-25T05:56:28.242Z,98207.53
2023-03-25T05:58:56.832Z,98202.50
2023-03-25T06:01:32.781Z,98203.06
2023-03-25T06:04:01.993Z,98200.19
2023-03-25T06:06:29.481Z,98203.81
2023-03-25T06:08:56.198Z,98196.78
2023-03-25T06:11:22.657Z,98204.63
2023-03-25T06:13:52.197Z,98202.50
2023-03-25T06:16:21.472Z,98202.63
2023-03-25T06:18:56.190Z,98218.81
2023-03-25T06:21:23.996Z,98200.47
2023-03-25T06:23:50.782Z,98189.78
2023-03-25T06:26:18.933Z,98185.19
2023-03-25T06:28:45.986Z,98193.22
2023-03-25T06:31:18.069Z,98194.59
2023-03-25T06:33:45.274Z,98191.88
2023-03-25T06:36:13.725Z,98187.56
2023-03-25T06:38:40.395Z,98190.91
2023-03-25T06:41:07.657Z,98184.78
2023-03-25T06:43:34.716Z,98172.91
2023-03-25T06:46:01.201Z,98175.38
2023-03-25T06:48:28.042Z,98177.84
2023-03-25T06:50:54.742Z,98192.19
2023-03-25T06:53:22.970Z,98195.38
2023-03-25T06:55:49.592Z,98187.63
2023-03-25T06:58:16.627Z,98191.31
2023-03-25T07:00:43.115Z,98181.06
2023-03-25T07:03:10.865Z,98189.81
2023-03-25T07:05:37.379Z,98185.00
2023-03-25T07:08:04.276Z,98181.84
2023-03-25T07:10:30.982Z,98180.19
2023-03-25T07:12:57.548Z,98170.97
2023-03-25T07:15:23.922Z,98164.59
2023-03-25T07:17:50.562Z,98164.75
2023-03-25T07:20:17.296Z,98165.41
2023-03-25T07:22:44.624Z,98179.31
2023-03-25T07:25:11.065Z,98185.66
2023-03-25T07:27:37.732Z,98182.09
2023-03-25T07:30:05.149Z,98199.44
2023-03-25T07:32:32.027Z,98201.81
2023-03-25T07:34:58.402Z,98206.44
2023-03-25T07:37:25.027Z,98199.88
2023-03-25T07:39:51.801Z,98214.56
2023-03-25T07:42:18.187Z,98211.25
2023-03-25T07:44:44.732Z,98200.25
2023-03-25T07:47:11.486Z,98202.13
2023-03-25T07:49:40.760Z,98205.53
2023-03-25T07:52:08.100Z,98205.28
2023-03-25T07:54:34.545Z,98207.72
2023-03-25T07:57:01.463Z,98209.25
2023-03-25T07:59:29.372Z,98208.78
2023-03-25T08:01:56.403Z,98235.97
2023-03-25T08:04:22.970Z,98252.22
2023-03-25T08:06:49.790Z,98267.75
2023-03-25T08:09:17.435Z,98238.25
2023-03-25T08:11:43.827Z,98248.06
2023-03-25T08:14:10.235Z,98252.56
2023-03-25T08:16:36.827Z,98284.38
2023-03-25T08:19:03.285Z,98291.25
2023-03-25T08:21:30.038Z,98296.06
2023-03-25T08:24:05.080Z,98288.03
2023-03-25T08:26:33.591Z,98287.13
2023-03-25T08:29:02.499Z,98287.56
2023-03-25T08:31:35.557Z,98271.00
2023-03-25T08:34:03.700Z,98280.28
2023-03-25T08:36:30.452Z,98281.72
2023-03-25T08:38:57.132Z,98276.13
2023-03-25T08:41:24.546Z,98280.63
2023-03-25T08:43:51.147Z,98278.88
2023-03-25T08:46:17.702Z,98269.53
2023-03-25T08:48:45.441Z,98268.41
2023-03-25T08:51:11.896Z,98259.81
2023-03-25T08:53:39.424Z,98264.09
2023-03-25T08:56:07.274Z,98252.66
2023-03-25T08:58:33.721Z,98256.63
2023-03-25T09:01:00.133Z,98258.69
2023-03-25T09:03:27.345Z,98253.19
2023-03-25T09:05:54.771Z,98244.44
2023-03-25T09:08:21.853Z,98256.22
2023-03-25T09:10:48.631Z,98255.94
2023-03-25T09:13:15.477Z,98241.75
2023-03-25T09:15:42.035Z,98239.44
2023-03-25T09:18:09.146Z,98245.94
2023-03-25T09:20:35.879Z,98244.94
2023-03-25T09:23:02.353Z,98246.47
2023-03-25T09:25:28.899Z,98251.66
2023-03-25T09:27:55.863Z,98243.97
2023-03-25T09:30:22.328Z,98237.59
2023-03-25T09:32:48.973Z,98242.66
2023-03-25T09:35:15.522Z,98229.22
2023-03-25T09:37:43.673Z,98232.56
2023-03-25T09:40:14.563Z,98212.78
2023-03-25T09:43:01.189Z,98229.38
2023-03-25T09:45:43.030Z,98229.22
2023-03-25T09:48:27.612Z,98224.94
2023-03-25T09:50:55.271Z,98228.63
2023-03-25T09:53:46.645Z,98223.50
2023-03-25T09:56:18.419Z,98226.91
2023-03-25T09:58:51.991Z,98216.78
2023-03-25T10:01:38.381Z,98220.34
2023-03-25T10:04:10.908Z,98231.47
2023-03-25T10:06:46.970Z,98225.47
2023-03-25T10:09:34.879Z,98231.56
2023-03-25T10:12:12.009Z,98236.53
2023-03-25T10:15:04.938Z,98240.56
2023-03-25T10:17:38.457Z,98243.94
2023-03-25T10:20:44.168Z,98242.25
2023-03-25T10:23:32.253Z,98246.81
2023-03-25T10:26:09.358Z,98247.47
2023-03-25T10:28:43.319Z,98251.16
2023-03-25T10:31:17.296Z,98259.34
2023-03-25T10:33:53.219Z,98263.69
2023-03-25T10:36:28.982Z,98264.69
2023-03-25T10:38:55.951Z,98250.78
2023-03-25T10:41:35.705Z,98248.44
2023-03-25T10:44:04.735Z,98252.56
2023-03-25T10:46:47.455Z,98257.09
2023-03-25T10:49:28.901Z,98260.00
2023-03-25T10:51:58.696Z,98286.88
2023-03-25T10:54:34.745Z,98280.53
2023-03-25T10:57:08.668Z,98288.22
2023-03-25T10:59:56.446Z,98272.91
2023-03-25T11:02:25.856Z,98259.81
2023-03-25T11:04:56.726Z,98269.09
2023-03-25T11:07:26.559Z,98267.06
2023-03-25T11:09:53.092Z,98266.56
2023-03-25T11:12:30.218Z,98276.50
2023-03-25T11:15:01.981Z,98265.91
2023-03-25T11:17:29.460Z,98276.34
2023-03-25T11:20:00.680Z,98268.59
2023-03-25T11:22:30.126Z,98282.69
2023-03-25T11:25:29.226Z,98276.00
2023-03-25T11:27:59.379Z,98260.44
2023-03-25T11:30:26.665Z,98255.97
2023-03-25T11:32:59.606Z,98279.88
2023-03-25T11:35:29.393Z,98267.94
2023-03-25T11:37:58.810Z,98276.78
2023-03-25T11:40:28.324Z,98271.75
2023-03-25T11:43:00.250Z,98266.38
2023-03-25T11:45:39.255Z,98272.72
2023-03-25T11:48:21.319Z,98267.25
2023-03-25T11:50:57.433Z,98268.25
2023-03-25T11:53:26.983Z,98242.84
2023-03-25T11:56:02.047Z,98251.25
2023-03-25T11:58:33.111Z,98248.91
2023-03-25T12:01:27.953Z,98256.69
2023-03-25T12:04:18.271Z,98256.41
2023-03-25T12:07:10.722Z,98249.44
2023-03-25T12:09:37.315Z,98241.91
2023-03-25T12:12:04.001Z,98253.00
2023-03-25T12:14:39.520Z,98262.94
2023-03-25T12:17:11.879Z,98258.75
2023-03-25T12:20:01.143Z,98260.59
2023-03-25T12:23:03.433Z,98251.13
2023-03-25T12:25:35.900Z,98238.59
2023-03-25T12:28:29.674Z,98221.72
2023-03-25T12:31:05.437Z,98193.69
2023-03-25T12:34:01.667Z,98230.53
2023-03-25T12:36:53.455Z,98260.63
2023-03-25T12:39:42.275Z,98309.66
2023-03-25T12:42:51.486Z,98288.53
2023-03-25T12:45:39.930Z,98275.31
2023-03-25T12:48:33.351Z,98283.28
2023-03-25T12:51:22.262Z,98266.06
2023-03-25T12:53:57.877Z,98263.69
2023-03-25T12:56:52.875Z,98256.84
2023-03-25T12:59:37.743Z,98255.47
2023-03-25T13:02:16.076Z,98241.31
2023-03-25T13:05:05.406Z,98217.50
2023-03-25T13:07:36.596Z,98232.41
2023-03-25T13:10:20.093Z,98221.38
2023-03-25T13:12:52.488Z,98210.97
2023-03-25T13:15:27.337Z,98221.47
2023-03-25T13:18:11.387Z,98223.41
2023-03-25T13:20:45.205Z,98224.59
2023-03-25T13:23:17.586Z,98218.06
2023-03-25T13:26:01.044Z,98214.47
2023-03-25T13:28:38.931Z,98204.06
2023-03-25T13:31:15.564Z,98204.56
2023-03-25T13:33:48.533Z,98203.34
2023-03-25T13:36:28.109Z,98202.97
2023-03-25T13:39:01.506Z,98191.66
2023-03-25T13:41:39.809Z,98197.09
2023-03-25T13:44:27.281Z,98191.03
2023-03-25T13:47:00.234Z,98174.84
2023-03-25T13:49:35.311Z,98176.44
2023-03-25T13:52:02.145Z,98173.75
2023-03-25T13:54:45.870Z,98172.88
2023-03-25T13:57:38.711Z,98160.44
2023-03-25T14:00:18.255Z,98175.22
2023-03-25T14:03:06.059Z,98171.66
2023-03-25T14:06:18.290Z,98156.16
2023-03-25T14:09:00.181Z,98159.13
2023-03-25T14:11:42.777Z,98161.81
2023-03-25T14:14:17.454Z,98159.47
2023-03-25T14:16:53.503Z,98159.66
2023-03-25T14:19:32.137Z,98159.47
2023-03-25T14:21:58.875Z,98178.88
2023-03-25T14:24:33.202Z,98185.13
2023-03-25T14:27:01.354Z,98189.41
2023-03-25T14:29:31.622Z,98199.44
2023-03-25T14:32:22.969Z,98201.31
2023-03-25T14:34:50.134Z,98255.47
2023-03-25T14:37:26.303Z,98300.97
2023-03-25T14:39:56.637Z,98316.84
2023-03-25T14:42:28.783Z,98299.09
2023-03-25T14:45:33.019Z,98294.25
2023-03-25T14:48:00.519Z,98273.31
2023-03-25T14:50:29.857Z,98277.34
2023-03-25T14:53:11.493Z,98288.19
2023-03-25T14:55:45.155Z,98288.88
2023-03-25T14:58:24.013Z,98295.88
2023-03-25T15:01:06.454Z,98301.41
2023-03-25T15:03:39.567Z,98299.06
2023-03-25T15:06:09.809Z,98301.59
2023-03-25T15:08:40.557Z,98302.81
2023-03-25T15:11:14.538Z,98291.53
2023-03-25T15:13:52.654Z,98280.22
2023-03-25T15:16:32.259Z,98280.44
2023-03-25T15:19:03.186Z,98265.00
2023-03-25T15:21:54.358Z,98259.47
2023-03-25T15:24:27.209Z,98245.94
2023-03-25T15:26:56.677Z,98241.63
2023-03-25T15:30:01.196Z,98241.28
2023-03-25T15:32:52.860Z,98235.75
2023-03-25T15:35:45.076Z,98231.53
2023-03-25T15:38:26.625Z,98229.88
2023-03-25T15:41:46.644Z,98229.81
2023-03-25T15:44:31.747Z,98226.47
2023-03-25T15:47:17.386Z,98235.84
2023-03-25T15:50:41.799Z,98234.31
2023-03-25T15:53:42.955Z,98238.16
2023-03-25T15:56:17.790Z,98227.41
2023-03-25T15:58:55.091Z,98223.34
2023-03-25T16:01:29.432Z,98219.00
2023-03-25T16:04:01.662Z,98221.47
2023-03-25T16:06:29.993Z,98218.63
2023-03-25T16:08:59.321Z,98213.63
2023-03-25T16:11:28.133Z,98219.59
2023-03-25T16:14:15.459Z,98211.91
2023-03-25T16:16:47.788Z,98225.34
2023-03-25T16:19:34.204Z,98216.59
2023-03-25T16:22:08.443Z,98216.88
2023-03-25T16:24:35.374Z,98218.91
2023-03-25T16:27:19.323Z,98218.38
2023-03-25T16:29:54.121Z,98217.19
2023-03-25T16:32:26.140Z,98217.66
2023-03-25T16:34:53.908Z,98207.03
2023-03-25T16:37:21.941Z,98216.13
2023-03-25T16:39:53.774Z,98216.47
2023-03-25T16:42:32.758Z,98218.50
2023-03-25T16:44:59.198Z,98217.47
2023-03-25T16:47:26.342Z,98226.78
2023-03-25T16:49:55.820Z,98222.78
2023-03-25T16:52:27.394Z,98227.13
2023-03-25T16:55:27.544Z,98229.81
2023-03-25T16:57:54.819Z,98231.97
2023-03-25T17:00:24.371Z,98229.28
2023-03-25T17:02:51.744Z,98226.66
2023-03-25T17:05:29.656Z,98229.03
2023-03-25T17:08:04.970Z,98234.19
2023-03-25T17:10:52.414Z,98234.22
2023-03-25T17:13:37.313Z,98237.59
2023-03-25T17:16:07.638Z,98242.47
2023-03-25T17:18:36.927Z,98258.63
2023-03-25T17:21:09.939Z,98227.09
2023-03-25T17:23:45.168Z,98247.25
2023-03-25T17:26:15.190Z,98261.84
2023-03-25T17:28:45.009Z,98259.22
2023-03-25T17:31:24.507Z,98262.75
2023-03-25T17:33:59.942Z,98269.09
2023-03-25T17:36:27.353Z,98251.19
2023-03-25T17:38:53.973Z,98265.25
2023-03-25T17:41:21.584Z,98267.78
2023-03-25T17:43:51.625Z,98259.38
2023-03-25T17:46:27.087Z,98278.19
2023-03-25T17:48:57.610Z,98279.84
2023-03-25T17:51:29.612Z,98280.84
2023-03-25T17:53:56.226Z,98289.06
2023-03-25T17:56:27.626Z,98286.56
2023-03-25T17:59:07.340Z,98298.59
2023-03-25T18:01:35.197Z,98309.84
2023-03-25T18:04:02.077Z,98323.63
2023-03-25T18:06:28.664Z,98337.69
2023-03-25T18:08:55.090Z,98349.91
2023-03-25T18:11:21.593Z,98360.78
2023-03-25T18:13:48.233Z,98346.88
2023-03-25T18:16:20.677Z,98345.66
2023-03-25T18:18:47.494Z,98362.91
2023-03-25T18:21:16.813Z,98351.88
2023-03-25T18:23:48.562Z,98356.22
2023-03-25T18:26:17.533Z,98359.22
2023-03-25T18:28:45.816Z,98362.59
2023-03-25T18:31:16.990Z,98370.47
2023-03-25T18:33:51.109Z,98366.94
2023-03-25T18:36:18.860Z,98361.25
2023-03-25T18:38:45.946Z,98368.59
2023-03-25T18:41:17.310Z,98367.59
2023-03-25T18:43:44.405Z,98373.78
2023-03-25T18:46:14.775Z,98379.47
2023-03-25T18:48:42.504Z,98382.50
2023-03-25T18:51:13.592Z,98380.63
2023-03-25T18:53:40.900Z,98386.66
2023-03-25T18:56:08.333Z,98380.09
2023-03-25T18:58:35.887Z,98388.81
2023-03-25T19:01:04.956Z,98400.66
2023-03-25T19:03:38.674Z,98403.00
2023-03-25T19:06:08.358Z,98401.13
2023-03-25T19:08:34.995Z,98404.38
2023-03-25T19:11:16.501Z,98405.72
2023-03-25T19:13:46.160Z,98407.56
2023-03-25T19:16:12.760Z,98409.81
2023-03-25T19:18:39.506Z,98403.09
2023-03-25T19:21:06.089Z,98395.03
2023-03-25T19:23:32.631Z,98399.75
2023-03-25T19:26:01.028Z,98394.59
2023-03-25T19:28:27.606Z,98399.13
2023-03-25T19:30:55.903Z,98423.59
2023-03-25T19:33:22.526Z,98451.41
2023-03-25T19:35:58.136Z,98449.34
2023-03-25T19:38:24.602Z,98452.16
2023-03-25T19:41:01.338Z,98456.59
2023-03-25T19:43:27.738Z,98437.69
2023-03-25T19:45:59.399Z,98451.03
2023-03-25T19:48:26.347Z,98455.69
2023-03-25T19:50:54.714Z,98459.06
2023-03-25T19:53:22.196Z,98462.16
2023-03-25T19:55:49.072Z,98470.91
2023-03-25T19:58:19.267Z,98464.66
2023-03-25T20:00:46.648Z,98458.91
2023-03-25T20:03:13.577Z,98440.25
2023-03-25T20:05:41.034Z,98441.63
2023-03-25T20:08:09.366Z,98431.28
2023-03-25T20:10:38.771Z,98426.03
2023-03-25T20:13:05.483Z,98427.22
2023-03-25T20:15:32.188Z,98429.91
2023-03-25T20:17:59.205Z,98435.16
2023-03-25T20:20:25.952Z,98430.94
2023-03-25T20:22:53.216Z,98424.50
2023-03-25T20:25:19.889Z,98418.63
2023-03-25T20:27:46.699Z,98420.09
2023-03-25T20:30:16.569Z,98426.16
2023-03-25T20:32:44.986Z,98419.94
2023-03-25T20:35:14.733Z,98428.91
2023-03-25T20:37:42.729Z,98424.94
2023-03-25T20:40:11.987Z,98415.03
2023-03-25T20:42:41.254Z,98418.53
2023-03-25T20:45:08.741Z,98421.50
2023-03-25T20:47:36.064Z,98411.81
2023-03-25T20:50:03.180Z,98412.22
2023-03-25T20:52:30.160Z,98413.47
2023-03-25T20:54:56.783Z,98419.72
2023-03-25T20:57:23.467Z,98421.44
2023-03-25T20:59:52.803Z,98417.00
2023-03-25T21:02:21.255Z,98423.25
2023-03-25T21:04:48.495Z,98428.91
2023-03-25T21:07:19.262Z,98432.41
2023-03-25T21:09:47.760Z,98427.38
2023-03-25T21:12:14.904Z,98426.25
2023-03-25T21:14:43.185Z,98427.19
2023-03-25T21:17:09.970Z,98429.84
2023-03-25T21:19:36.860Z,98446.03
2023-03-25T21:22:04.379Z,98442.09
2023-03-25T21:24:35.566Z,98439.97
2023-03-25T21:27:03.076Z,98440.25
2023-03-25T21:29:30.120Z,98448.06
2023-03-25T21:31:57.990Z,98456.28
2023-03-25T21:34:24.887Z,98457.91
2023-03-25T21:36:51.300Z,98454.06
2023-03-25T21:39:17.850Z,98456.97
2023-03-25T21:41:44.356Z,98450.63
2023-03-25T21:44:12.605Z,98459.72
2023-03-25T21:46:40.827Z,98453.31
2023-03-25T21:49:08.657Z,98450.72
2023-03-25T21:51:42.267Z,98464.53
2023-03-25T21:54:10.116Z,98465.53
2023-03-25T21:56:39.762Z,98467.91
2023-03-25T21:59:07.440Z,98445.00
2023-03-25T22:01:35.765Z,98465.06
2023-03-25T22:04:02.537Z,98454.38
2023-03-25T22:06:31.427Z,98461.38
2023-03-25T22:08:58.874Z,98453.91
2023-03-25T22:11:31.575Z,98450.00
2023-03-25T22:13:58.230Z,98455.66
2023-03-25T22:16:25.898Z,98456.59
2023-03-25T22:18:53.379Z,98453.84
2023-03-25T22:21:23.309Z,98466.91
2023-03-25T22:23:54.096Z,98458.88
2023-03-25T22:26:23.011Z,98467.69
2023-03-25T22:28:54.237Z,98465.97
2023-03-25T22:31:31.381Z,98463.16
2023-03-25T22:34:03.650Z,98463.78
2023-03-25T22:36:31.982Z,98463.63
2023-03-25T22:39:00.353Z,98466.22
2023-03-25T22:41:27.349Z,98466.56
2023-03-25T22:43:53.970Z,98470.38
2023-03-25T22:46:20.399Z,98467.69
2023-03-25T22:48:46.982Z,98467.81
2023-03-25T22:51:16.537Z,98464.72
2023-03-25T22:53:44.072Z,98468.53
2023-03-25T22:56:11.298Z,98466.75
2023-03-25T22:58:38.519Z,98480.25
2023-03-25T23:01:16.875Z,98474.19
2023-03-25T23:03:43.503Z,98476.91
2023-03-25T23:06:10.520Z,98484.50
2023-03-25T23:08:38.838Z,98479.78
2023-03-25T23:11:31.636Z,98474.44
2023-03-25T23:14:06.180Z,98474.63
2023-03-25T23:16:36.998Z,98485.19
2023-03-25T23:19:06.128Z,98486.19
2023-03-25T23:21:33.742Z,98487.72
2023-03-25T23:24:02.898Z,98483.53
2023-03-25T23:26:39.247Z,98480.84
2023-03-25T23:29:09.698Z,98475.50
2023-03-25T23:31:37.830Z,98473.06
2023-03-25T23:34:07.109Z,98464.81
2023-03-25T23:36:36.125Z,98474.50
2023-03-25T23:39:08.362Z,98468.69
2023-03-25T23:41:35.106Z,98469.13
2023-03-25T23:44:01.946Z,98464.66
2023-03-25T23:46:28.892Z,98469.38
2023-03-25T23:48:55.448Z,98469.28
2023-03-25T23:51:24.755Z,98460.34
2023-03-25T23:53:53.055Z,98467.31
2023-03-25T23:56:22.070Z,98473.56
2023-03-25T23:58:49.027Z,98473.28
